x

Tillamook, Or - 85 Nm Wnw Of Tillamook, Or (46089) Wave Buoy

12:50pm - Sat 22nd Nov 2014 All times are PST. -8 hours from GMT.

  • Sig Wave height 11.2ft
  • Swell Direction
  • Peak Period 16s
  • Average Period 8s
  • Wind
    13mph, 20mph gusts
  • Sea Temp 56°f
  • Air Temp 55°f
  • Sea Pressure 1014.4mb
  • Tillamook, Or - 85 Nm Wnw Of Tillamook, Or
  • Tillamook, Or - 85 Nm Wnw Of Tillamook, Or

More Historic Weather Station data

Upgrade to MSW Pro to gain access to the past 30 days of data for over 8000 Wavebouys and Weather Stations around the globe.

Join Pro

Comparision Forecast

View Surf forecast
   
Sat 11/22 12:50pm 11ft 16s 8s 13 20 mph 1014.4mb 56f 55f
11:50am 12ft 16s 8s 16 22 mph 1013.3mb 56f 54f
10:50am 12ft 16s 8s 16 25 mph 1012.3mb 56f 54f
9:50am 12ft 11s 7s 13 20 mph 1010.9mb 56f 52f
8:50am 12.5ft 9s 7s 16 20 mph 1009.3mb 56f 53f
7:50am 12ft 12s 7s 18 22 mph 1007.6mb 56f 54f
6:50am 12.5ft 9s 7s 18 25 mph 1006.5mb 56f 53f
5:50am 12ft 10s 7s 16 22 mph 1006.2mb 56f 51f
4:50am 10ft 9s 7s 16 20 mph 1005.4mb 56f 55f
3:50am 11.5ft 10s 8s 16 22 mph 1005.5mb 56f 55f
2:50am 11.5ft 10s 8s 13 20 mph 1005.3mb 56f 55f
1:50am 10.5ft 10s 8s 13 20 mph 1004.7mb 56f 54f
12:50am 12ft 10s 8s 13 18 mph 1004.1mb 56f 54f
Fri 11/21 11:50pm 12ft 10s 8s 13 20 mph 1003.4mb 56f 54f
10:50pm 11ft 11s 7s 13 18 mph 1002.7mb 56f 53f
9:50pm 12ft 9s 7s 16 25 mph 1001.7mb 56f 55f
8:50pm 13ft 10s 7s 16 22 mph 1000.8mb 56f 54f
7:50pm 11ft 10s 7s 16 22 mph 1000mb 56f 55f
6:50pm 12ft 11s 7s 16 25 mph 999.2mb 56f 55f
5:50pm 13ft 10s 7s 18 22 mph 998.2mb 56f 55f
4:50pm 13.5ft 9s 7s 18 22 mph 996.9mb 56f 54f
3:50pm 13ft 10s 7s 16 25 mph 995.7mb 56f 54f
2:50pm 14ft 8s 7s 18 25 mph 994.6mb 56f 55f
1:50pm 15ft 9s 7s 20 31 mph 993.4mb 56f 57f
12:50pm 15ft 8s 7s 20 25 mph 993.6mb 56f 57f
11:50am 14ft 8s 7s 22 36 mph 994.8mb 56f 56f
10:50am 13ft 8s 6s 25 40 mph 996.4mb 56f 55f
9:50am 11ft 7s 6s 25 34 mph 998.1mb 56f 54f
8:50am 9.5ft 6s 6s 25 31 mph 999.9mb 56f 54f
7:50am 8ft 8s 6s 20 29 mph 1001.7mb 56f 54f
6:50am 8ft 13s 6s 20 27 mph 1003.2mb 56f 55f
5:50am 8ft 13s 6s 18 27 mph 1004.4mb 56f 56f
4:50am 8ft 13s 6s 16 22 mph 1005.7mb 56f 56f
3:50am 8ft 13s 7s 16 25 mph 1006.8mb 56f 56f
2:50am 8ft 13s 7s 16 20 mph 1008.6mb 56f 56f
1:50am 8ft 11s 7s 16 22 mph 1008.4mb 56f 55f
12:50am 8.5ft 12s 7s 13 18 mph 1009mb 56f 55f
Thu 11/20 11:50pm 8ft 9s 7s 11 16 mph 1009.7mb 56f 55f
10:50pm 7.5ft 10s 7s 11 16 mph 1010.2mb 56f 55f
9:50pm 9ft 11s 8s 9 11 mph 1010.6mb 56f 55f
8:50pm 8ft 10s 8s 9 11 mph 1011.2mb 56f 55f
7:50pm 9ft 10s 8s 9 11 mph 1011.7mb 56f 55f
6:50pm 9ft 14s 8s 11 13 mph 1011.6mb 56f 55f
5:50pm 8ft 10s 8s 7 11 mph 1011.2mb 56f 55f
4:50pm 7.5ft 14s 8s 7 9 mph 1011.5mb 56f 55f
3:50pm 8ft 14s 8s 4
mph
1011.5mb 56f 55f
2:50pm 9ft 14s 8s 9 13 mph 1011.9mb 56f 55f
1:50pm 9ft 10s 8s 9 11 mph 1011.3mb 56f 56f
12:50pm 9.5ft 11s 8s 4 9 mph 1011.7mb 56f 55f
11:50am 10.5ft 10s 7s 7 11 mph 1012.2mb 56f 55f
10:50am 10ft 10s 8s 11 16 mph 1012.1mb 56f 55f
9:50am 11ft 10s 8s 9 13 mph 1012mb 56f 55f
8:50am 11ft 10s 8s 9 13 mph 1012mb 56f 55f
7:50am 10.5ft 9s 7s 11 16 mph 1012mb 56f 55f
6:50am 11.5ft 10s 8s 13 20 mph 1011.7mb 56f 56f
5:50am 12ft 11s 8s 13 18 mph 1011.6mb 56f 55f
4:50am 11ft 11s 7s 13 20 mph 1011.4mb 56f 55f
3:50am 10.5ft 11s 8s 13 18 mph 1011.3mb 56f 55f
2:50am 11ft 11s 8s 13 20 mph 1011.2mb 56f 56f
1:50am 12ft 11s 8s 16 20 mph 1010.7mb 56f 56f
12:50am 10.5ft 11s 7s 16 20 mph 1010.2mb 56f 56f
Wed 11/19 11:50pm 11ft 11s 8s 16 22 mph 1009.7mb 56f 56f
10:50pm 11ft 11s 7s 16 22 mph 1008.9mb 56f 56f
9:50pm 11ft 12s 7s 18 27 mph 1007.8mb 56f 56f
8:50pm 10ft 12s 7s 18 25 mph 1006.9mb 56f 56f
7:50pm 11.5ft 11s 7s 18 27 mph 1005.9mb 56f 56f
6:50pm 11ft 9s 7s 16 25 mph 1005.1mb 56f 55f
5:50pm 10ft 12s 7s 20 29 mph 1004.9mb 56f 55f
4:50pm 10ft 11s 7s 18 25 mph 1005.5mb 56f 55f
3:50pm 10ft 10s 7s 16 22 mph 1006mb 56f 56f
2:50pm 10.5ft 11s 7s 16 20 mph 1006.1mb 56f 57f
1:50pm 10ft 11s 7s 13 18 mph 1006.4mb 56f 56f
12:50pm 9.5ft 11s 7s 13 20 mph 1007.1mb 56f 56f
11:50am 9ft 11s 7s 13 18 mph 1007.8mb 56f 56f
10:50am 10ft 11s 7s 16 20 mph 1008.7mb 56f 56f
9:50am 8ft 11s 7s 16 20 mph 1009.2mb 56f 56f
8:50am 9ft 11s 7s 13 20 mph 1009mb 56f 56f
7:50am 10ft 11s 8s 13 18 mph 1009.5mb 56f 56f
6:50am 8ft 11s 7s 11 16 mph 1010.2mb 56f 56f
5:50am 7.5ft 11s 7s 13 18 mph 1010.5mb 56f 56f
4:50am 8ft 11s 7s 13 20 mph 1010.9mb 56f 56f
3:50am 8ft 11s 7s 13 18 mph 1011.4mb 56f 57f
2:50am 8ft 11s 7s 16 20 mph 1012.3mb 56f 56f
1:50am 8ft 11s 7s 13 18 mph 1012.5mb 56f 57f
12:50am 9ft 11s 7s 16 20 mph 1012.8mb 56f 57f
Tue 11/18 11:50pm 8ft 10s 7s 13 20 mph 1013.2mb 56f 56f
10:50pm 7.5ft 11s 7s 13 18 mph 1013.5mb 56f 56f
9:50pm 8ft 9s 7s 13 18 mph 1013.8mb 56f 56f